sensor_id;sensor_type;location;lat;lon;timestamp;temperature;humidity
12408;DHT22;6268;48.188;17.134;2023-08-30T00:00:21;16.10;99.90
12408;DHT22;6268;48.188;17.134;2023-08-30T00:02:50;16.10;99.90
12408;DHT22;6268;48.188;17.134;2023-08-30T00:05:19;16.10;99.90
12408;DHT22;6268;48.188;17.134;2023-08-30T00:07:47;16.10;99.90
12408;DHT22;6268;48.188;17.134;2023-08-30T00:10:17;16.10;99.90
12408;DHT22;6268;48.188;17.134;2023-08-30T00:12:46;16.00;99.90
12408;DHT22;6268;48.188;17.134;2023-08-30T00:15:14;16.00;99.90
12408;DHT22;6268;48.188;17.134;2023-08-30T00:17:43;16.00;99.90
12408;DHT22;6268;48.188;17.134;2023-08-30T00:20:12;16.00;99.90
12408;DHT22;6268;48.188;17.134;2023-08-30T00:22:40;15.90;99.90
12408;DHT22;6268;48.188;17.134;2023-08-30T00:25:09;16.00;99.90
12408;DHT22;6268;48.188;17.134;2023-08-30T00:27:39;16.00;99.90
12408;DHT22;6268;48.188;17.134;2023-08-30T00:30:09;16.00;99.90
12408;DHT22;6268;48.188;17.134;2023-08-30T00:32:39;16.00;99.90
12408;DHT22;6268;48.188;17.134;2023-08-30T00:35:08;16.00;99.90
12408;DHT22;6268;48.188;17.134;2023-08-30T00:37:36;16.00;99.90
12408;DHT22;6268;48.188;17.134;2023-08-30T00:40:06;16.00;99.90
12408;DHT22;6268;48.188;17.134;2023-08-30T00:42:34;16.00;99.90
12408;DHT22;6268;48.188;17.134;2023-08-30T00:45:06;16.00;99.90
12408;DHT22;6268;48.188;17.134;2023-08-30T00:47:34;16.00;99.90
12408;DHT22;6268;48.188;17.134;2023-08-30T00:50:04;16.00;99.90
12408;DHT22;6268;48.188;17.134;2023-08-30T00:52:33;16.00;99.90
12408;DHT22;6268;48.188;17.134;2023-08-30T00:55:02;16.00;99.90
12408;DHT22;6268;48.188;17.134;2023-08-30T00:57:30;15.90;99.90
12408;DHT22;6268;48.188;17.134;2023-08-30T00:59:59;16.00;99.90
12408;DHT22;6268;48.188;17.134;2023-08-30T01:02:29;16.00;99.90
12408;DHT22;6268;48.188;17.134;2023-08-30T01:04:58;16.00;99.90
12408;DHT22;6268;48.188;17.134;2023-08-30T01:07:26;16.00;99.90
12408;DHT22;6268;48.188;17.134;2023-08-30T01:09:55;15.90;99.90
12408;DHT22;6268;48.188;17.134;2023-08-30T01:12:28;15.90;99.90
12408;DHT22;6268;48.188;17.134;2023-08-30T01:15:00;15.90;99.90
12408;DHT22;6268;48.188;17.134;2023-08-30T01:17:32;16.00;99.90
12408;DHT22;6268;48.188;17.134;2023-08-30T01:20:04;16.00;99.90
12408;DHT22;6268;48.188;17.134;2023-08-30T01:22:45;15.90;99.90
12408;DHT22;6268;48.188;17.134;2023-08-30T01:25:24;15.90;99.90
12408;DHT22;6268;48.188;17.134;2023-08-30T01:27:59;15.90;99.90
12408;DHT22;6268;48.188;17.134;2023-08-30T01:30:31;15.90;99.90
12408;DHT22;6268;48.188;17.134;2023-08-30T01:33:00;15.90;99.90
12408;DHT22;6268;48.188;17.134;2023-08-30T01:35:31;15.90;99.90
12408;DHT22;6268;48.188;17.134;2023-08-30T01:38:03;16.00;99.90
12408;DHT22;6268;48.188;17.134;2023-08-30T01:40:36;16.00;99.90
12408;DHT22;6268;48.188;17.134;2023-08-30T01:43:07;16.00;99.90
12408;DHT22;6268;48.188;17.134;2023-08-30T01:45:40;16.00;99.90
12408;DHT22;6268;48.188;17.134;2023-08-30T01:48:12;16.00;99.90
12408;DHT22;6268;48.188;17.134;2023-08-30T01:50:41;16.00;99.90
12408;DHT22;6268;48.188;17.134;2023-08-30T01:53:12;16.10;99.90
12408;DHT22;6268;48.188;17.134;2023-08-30T01:55:41;16.10;99.90
12408;DHT22;6268;48.188;17.134;2023-08-30T01:58:11;16.10;99.90
12408;DHT22;6268;48.188;17.134;2023-08-30T02:00:40;16.10;99.90
12408;DHT22;6268;48.188;17.134;2023-08-30T02:03:09;16.10;99.90
12408;DHT22;6268;48.188;17.134;2023-08-30T02:06:00;16.10;99.90
12408;DHT22;6268;48.188;17.134;2023-08-30T02:08:37;16.10;99.90
12408;DHT22;6268;48.188;17.134;2023-08-30T02:11:11;16.10;99.90
12408;DHT22;6268;48.188;17.134;2023-08-30T02:13:43;16.10;99.90
12408;DHT22;6268;48.188;17.134;2023-08-30T02:16:14;16.10;99.90
12408;DHT22;6268;48.188;17.134;2023-08-30T02:18:45;16.10;99.90
12408;DHT22;6268;48.188;17.134;2023-08-30T02:21:14;16.10;99.90
12408;DHT22;6268;48.188;17.134;2023-08-30T02:23:43;16.00;99.90
12408;DHT22;6268;48.188;17.134;2023-08-30T02:26:11;16.00;99.90
12408;DHT22;6268;48.188;17.134;2023-08-30T02:28:40;16.10;99.90
12408;DHT22;6268;48.188;17.134;2023-08-30T02:31:10;16.10;99.90
12408;DHT22;6268;48.188;17.134;2023-08-30T02:33:38;16.10;99.90
12408;DHT22;6268;48.188;17.134;2023-08-30T02:36:07;16.10;99.90
12408;DHT22;6268;48.188;17.134;2023-08-30T02:38:36;16.10;99.90
12408;DHT22;6268;48.188;17.134;2023-08-30T02:41:04;16.10;99.90
12408;DHT22;6268;48.188;17.134;2023-08-30T02:43:33;16.00;99.90
12408;DHT22;6268;48.188;17.134;2023-08-30T02:46:01;16.00;99.90
12408;DHT22;6268;48.188;17.134;2023-08-30T02:48:32;16.00;99.90
12408;DHT22;6268;48.188;17.134;2023-08-30T02:51:01;16.00;99.90
12408;DHT22;6268;48.188;17.134;2023-08-30T02:53:30;16.10;99.90
12408;DHT22;6268;48.188;17.134;2023-08-30T02:55:58;16.00;99.90
12408;DHT22;6268;48.188;17.134;2023-08-30T02:58:27;16.00;99.90
12408;DHT22;6268;48.188;17.134;2023-08-30T03:00:55;16.10;99.90
12408;DHT22;6268;48.188;17.134;2023-08-30T03:03:24;16.10;99.90
12408;DHT22;6268;48.188;17.134;2023-08-30T03:05:54;16.10;99.90
12408;DHT22;6268;48.188;17.134;2023-08-30T03:08:22;16.10;99.90
12408;DHT22;6268;48.188;17.134;2023-08-30T03:10:51;16.10;99.90
12408;DHT22;6268;48.188;17.134;2023-08-30T03:13:20;16.10;99.90
12408;DHT22;6268;48.188;17.134;2023-08-30T03:15:49;16.10;99.90
12408;DHT22;6268;48.188;17.134;2023-08-30T03:18:17;16.10;99.90
12408;DHT22;6268;48.188;17.134;2023-08-30T03:20:46;16.10;99.90
12408;DHT22;6268;48.188;17.134;2023-08-30T03:23:15;16.10;99.90
12408;DHT22;6268;48.188;17.134;2023-08-30T03:25:44;16.10;99.90
12408;DHT22;6268;48.188;17.134;2023-08-30T03:28:12;16.10;99.90
12408;DHT22;6268;48.188;17.134;2023-08-30T03:30:41;16.10;99.90
12408;DHT22;6268;48.188;17.134;2023-08-30T03:33:09;16.10;99.90
12408;DHT22;6268;48.188;17.134;2023-08-30T03:35:39;16.10;99.90
12408;DHT22;6268;48.188;17.134;2023-08-30T03:38:07;16.10;99.90
12408;DHT22;6268;48.188;17.134;2023-08-30T03:40:38;16.10;99.90
12408;DHT22;6268;48.188;17.134;2023-08-30T03:43:07;16.10;99.90
12408;DHT22;6268;48.188;17.134;2023-08-30T03:45:35;16.10;99.90
12408;DHT22;6268;48.188;17.134;2023-08-30T03:48:05;16.10;99.90
12408;DHT22;6268;48.188;17.134;2023-08-30T03:50:34;16.10;99.90
12408;DHT22;6268;48.188;17.134;2023-08-30T03:53:03;16.10;99.90
12408;DHT22;6268;48.188;17.134;2023-08-30T03:55:50;16.10;99.90
12408;DHT22;6268;48.188;17.134;2023-08-30T03:58:19;16.10;99.90
12408;DHT22;6268;48.188;17.134;2023-08-30T04:00:47;16.10;99.90
12408;DHT22;6268;48.188;17.134;2023-08-30T04:03:16;16.10;99.90
12408;DHT22;6268;48.188;17.134;2023-08-30T04:05:45;16.10;99.90
12408;DHT22;6268;48.188;17.134;2023-08-30T04:08:13;16.00;99.90
12408;DHT22;6268;48.188;17.134;2023-08-30T04:10:42;16.00;99.90
12408;DHT22;6268;48.188;17.134;2023-08-30T04:13:16;16.00;99.90
12408;DHT22;6268;48.188;17.134;2023-08-30T04:15:44;16.10;99.90
12408;DHT22;6268;48.188;17.134;2023-08-30T04:18:12;16.00;99.90
12408;DHT22;6268;48.188;17.134;2023-08-30T04:20:43;16.00;99.90
12408;DHT22;6268;48.188;17.134;2023-08-30T04:23:12;16.00;99.90
12408;DHT22;6268;48.188;17.134;2023-08-30T04:25:41;16.00;99.90
12408;DHT22;6268;48.188;17.134;2023-08-30T04:28:10;16.00;99.90
12408;DHT22;6268;48.188;17.134;2023-08-30T04:30:39;16.00;99.90
12408;DHT22;6268;48.188;17.134;2023-08-30T04:33:08;16.00;99.90
12408;DHT22;6268;48.188;17.134;2023-08-30T04:35:37;16.10;99.90
12408;DHT22;6268;48.188;17.134;2023-08-30T04:38:06;16.10;99.90
12408;DHT22;6268;48.188;17.134;2023-08-30T04:40:35;16.10;99.90
12408;DHT22;6268;48.188;17.134;2023-08-30T04:43:03;16.20;99.90
12408;DHT22;6268;48.188;17.134;2023-08-30T04:45:34;16.10;99.90
12408;DHT22;6268;48.188;17.134;2023-08-30T04:48:05;16.10;99.90
12408;DHT22;6268;48.188;17.134;2023-08-30T04:50:34;16.10;99.90
12408;DHT22;6268;48.188;17.134;2023-08-30T04:53:03;16.10;99.90
12408;DHT22;6268;48.188;17.134;2023-08-30T04:55:31;16.10;99.90
12408;DHT22;6268;48.188;17.134;2023-08-30T04:58:00;16.10;99.90
12408;DHT22;6268;48.188;17.134;2023-08-30T05:00:29;16.10;99.90
12408;DHT22;6268;48.188;17.134;2023-08-30T05:02:58;16.10;99.90
12408;DHT22;6268;48.188;17.134;2023-08-30T05:05:28;16.10;99.90
12408;DHT22;6268;48.188;17.134;2023-08-30T05:07:57;16.20;99.90
12408;DHT22;6268;48.188;17.134;2023-08-30T05:10:25;16.30;99.90
12408;DHT22;6268;48.188;17.134;2023-08-30T05:12:54;16.30;99.90
12408;DHT22;6268;48.188;17.134;2023-08-30T05:15:22;16.40;99.90
12408;DHT22;6268;48.188;17.134;2023-08-30T05:17:51;16.50;99.90
12408;DHT22;6268;48.188;17.134;2023-08-30T05:20:19;16.60;99.90
12408;DHT22;6268;48.188;17.134;2023-08-30T05:22:49;16.50;99.90
12408;DHT22;6268;48.188;17.134;2023-08-30T05:25:17;16.50;99.90
12408;DHT22;6268;48.188;17.134;2023-08-30T05:27:46;16.40;99.90
12408;DHT22;6268;48.188;17.134;2023-08-30T05:30:15;16.40;99.90
12408;DHT22;6268;48.188;17.134;2023-08-30T05:32:43;16.50;99.90
12408;DHT22;6268;48.188;17.134;2023-08-30T05:35:12;16.50;99.90
12408;DHT22;6268;48.188;17.134;2023-08-30T05:37:41;16.60;99.90
12408;DHT22;6268;48.188;17.134;2023-08-30T05:40:11;16.80;99.90
12408;DHT22;6268;48.188;17.134;2023-08-30T05:42:42;17.00;99.90
12408;DHT22;6268;48.188;17.134;2023-08-30T05:45:10;17.10;99.90
12408;DHT22;6268;48.188;17.134;2023-08-30T05:47:39;17.20;99.90
12408;DHT22;6268;48.188;17.134;2023-08-30T05:50:08;17.40;99.90
12408;DHT22;6268;48.188;17.134;2023-08-30T05:52:37;17.50;99.90
12408;DHT22;6268;48.188;17.134;2023-08-30T05:55:09;17.60;99.90
12408;DHT22;6268;48.188;17.134;2023-08-30T05:57:38;17.50;99.90
12408;DHT22;6268;48.188;17.134;2023-08-30T06:00:08;17.60;99.90
12408;DHT22;6268;48.188;17.134;2023-08-30T06:02:36;17.80;99.90
12408;DHT22;6268;48.188;17.134;2023-08-30T06:05:05;17.70;99.90
12408;DHT22;6268;48.188;17.134;2023-08-30T06:07:34;17.80;99.90
12408;DHT22;6268;48.188;17.134;2023-08-30T06:10:03;18.00;99.90
12408;DHT22;6268;48.188;17.134;2023-08-30T06:12:31;18.10;99.90
12408;DHT22;6268;48.188;17.134;2023-08-30T06:15:01;18.30;99.90
12408;DHT22;6268;48.188;17.134;2023-08-30T06:17:30;18.40;99.90
12408;DHT22;6268;48.188;17.134;2023-08-30T06:19:59;18.60;99.90
12408;DHT22;6268;48.188;17.134;2023-08-30T06:22:28;19.40;99.90
12408;DHT22;6268;48.188;17.134;2023-08-30T06:24:56;20.40;99.90
12408;DHT22;6268;48.188;17.134;2023-08-30T06:27:25;21.20;99.90
12408;DHT22;6268;48.188;17.134;2023-08-30T06:29:54;21.70;99.90
12408;DHT22;6268;48.188;17.134;2023-08-30T06:32:24;21.80;99.90
12408;DHT22;6268;48.188;17.134;2023-08-30T06:34:53;21.50;99.90
12408;DHT22;6268;48.188;17.134;2023-08-30T06:37:21;21.90;99.90
12408;DHT22;6268;48.188;17.134;2023-08-30T06:39:51;21.50;99.90
12408;DHT22;6268;48.188;17.134;2023-08-30T06:42:22;20.90;99.90
12408;DHT22;6268;48.188;17.134;2023-08-30T06:44:52;21.20;99.90
12408;DHT22;6268;48.188;17.134;2023-08-30T06:47:20;20.90;99.90
12408;DHT22;6268;48.188;17.134;2023-08-30T06:49:50;20.70;99.90
12408;DHT22;6268;48.188;17.134;2023-08-30T06:52:19;20.30;99.90
12408;DHT22;6268;48.188;17.134;2023-08-30T06:54:47;20.20;99.90
12408;DHT22;6268;48.188;17.134;2023-08-30T06:57:15;20.10;99.90
12408;DHT22;6268;48.188;17.134;2023-08-30T06:59:44;20.10;99.90
12408;DHT22;6268;48.188;17.134;2023-08-30T07:02:12;20.30;99.90
12408;DHT22;6268;48.188;17.134;2023-08-30T07:04:41;20.60;99.90
12408;DHT22;6268;48.188;17.134;2023-08-30T07:07:12;20.70;99.90
12408;DHT22;6268;48.188;17.134;2023-08-30T07:09:40;20.90;99.90
12408;DHT22;6268;48.188;17.134;2023-08-30T07:12:09;21.50;99.90
12408;DHT22;6268;48.188;17.134;2023-08-30T07:14:38;22.80;99.90
12408;DHT22;6268;48.188;17.134;2023-08-30T07:17:06;23.50;99.90
12408;DHT22;6268;48.188;17.134;2023-08-30T07:19:35;23.40;99.90
12408;DHT22;6268;48.188;17.134;2023-08-30T07:22:03;22.60;99.90
12408;DHT22;6268;48.188;17.134;2023-08-30T07:24:33;22.50;99.90
12408;DHT22;6268;48.188;17.134;2023-08-30T07:27:02;23.60;99.90
12408;DHT22;6268;48.188;17.134;2023-08-30T07:29:31;24.30;99.90
12408;DHT22;6268;48.188;17.134;2023-08-30T07:31:59;25.10;99.90
12408;DHT22;6268;48.188;17.134;2023-08-30T07:34:28;24.70;99.90
12408;DHT22;6268;48.188;17.134;2023-08-30T07:36:56;24.90;99.90
12408;DHT22;6268;48.188;17.134;2023-08-30T07:39:25;24.40;99.90
12408;DHT22;6268;48.188;17.134;2023-08-30T07:41:55;24.80;99.90
12408;DHT22;6268;48.188;17.134;2023-08-30T07:44:24;25.00;99.90
12408;DHT22;6268;48.188;17.134;2023-08-30T07:46:52;25.00;99.90
12408;DHT22;6268;48.188;17.134;2023-08-30T07:49:21;24.80;99.90
12408;DHT22;6268;48.188;17.134;2023-08-30T07:51:49;24.20;99.90
12408;DHT22;6268;48.188;17.134;2023-08-30T07:54:18;23.60;99.90
12408;DHT22;6268;48.188;17.134;2023-08-30T07:56:46;23.60;99.90
12408;DHT22;6268;48.188;17.134;2023-08-30T07:59:16;24.10;99.90
12408;DHT22;6268;48.188;17.134;2023-08-30T08:01:46;24.20;99.90
12408;DHT22;6268;48.188;17.134;2023-08-30T08:04:14;24.40;99.90
12408;DHT22;6268;48.188;17.134;2023-08-30T08:06:43;25.00;99.90
12408;DHT22;6268;48.188;17.134;2023-08-30T08:09:23;25.40;99.90
12408;DHT22;6268;48.188;17.134;2023-08-30T08:11:52;25.50;99.90
12408;DHT22;6268;48.188;17.134;2023-08-30T08:14:22;25.60;99.90
12408;DHT22;6268;48.188;17.134;2023-08-30T08:16:50;26.00;99.90
12408;DHT22;6268;48.188;17.134;2023-08-30T08:19:19;25.80;99.90
12408;DHT22;6268;48.188;17.134;2023-08-30T08:21:52;25.40;99.90
12408;DHT22;6268;48.188;17.134;2023-08-30T08:24:22;25.60;99.90
12408;DHT22;6268;48.188;17.134;2023-08-30T08:26:51;26.10;99.90
12408;DHT22;6268;48.188;17.134;2023-08-30T08:29:20;25.40;99.90
12408;DHT22;6268;48.188;17.134;2023-08-30T08:31:50;25.10;99.90
12408;DHT22;6268;48.188;17.134;2023-08-30T08:34:18;24.90;99.90
12408;DHT22;6268;48.188;17.134;2023-08-30T08:36:49;24.70;99.90
12408;DHT22;6268;48.188;17.134;2023-08-30T08:39:17;24.60;99.90
12408;DHT22;6268;48.188;17.134;2023-08-30T08:41:46;24.00;99.90
12408;DHT22;6268;48.188;17.134;2023-08-30T08:44:15;23.50;99.90
12408;DHT22;6268;48.188;17.134;2023-08-30T08:46:44;23.20;99.90
12408;DHT22;6268;48.188;17.134;2023-08-30T08:49:16;22.90;99.90
12408;DHT22;6268;48.188;17.134;2023-08-30T08:51:45;22.90;99.90
12408;DHT22;6268;48.188;17.134;2023-08-30T08:54:14;22.70;99.90
12408;DHT22;6268;48.188;17.134;2023-08-30T08:56:44;22.50;99.90
12408;DHT22;6268;48.188;17.134;2023-08-30T08:59:13;22.30;99.90
12408;DHT22;6268;48.188;17.134;2023-08-30T09:01:42;22.30;99.90
12408;DHT22;6268;48.188;17.134;2023-08-30T09:04:11;22.20;99.90
12408;DHT22;6268;48.188;17.134;2023-08-30T09:06:41;22.20;99.90
12408;DHT22;6268;48.188;17.134;2023-08-30T09:09:11;22.10;99.90
12408;DHT22;6268;48.188;17.134;2023-08-30T09:11:40;22.10;99.90
12408;DHT22;6268;48.188;17.134;2023-08-30T09:14:18;22.00;99.90
12408;DHT22;6268;48.188;17.134;2023-08-30T09:16:54;21.60;99.90
12408;DHT22;6268;48.188;17.134;2023-08-30T09:19:23;21.50;99.90
12408;DHT22;6268;48.188;17.134;2023-08-30T09:21:53;21.60;99.90
12408;DHT22;6268;48.188;17.134;2023-08-30T09:24:22;21.70;99.90
12408;DHT22;6268;48.188;17.134;2023-08-30T09:26:52;21.80;99.90
12408;DHT22;6268;48.188;17.134;2023-08-30T09:29:22;21.70;99.90
12408;DHT22;6268;48.188;17.134;2023-08-30T09:31:52;21.60;99.90
12408;DHT22;6268;48.188;17.134;2023-08-30T09:34:22;21.50;99.90
12408;DHT22;6268;48.188;17.134;2023-08-30T09:36:54;21.80;99.90
12408;DHT22;6268;48.188;17.134;2023-08-30T09:39:22;21.70;99.90
12408;DHT22;6268;48.188;17.134;2023-08-30T09:41:51;21.70;99.90
12408;DHT22;6268;48.188;17.134;2023-08-30T09:44:22;21.70;99.90
12408;DHT22;6268;48.188;17.134;2023-08-30T09:46:53;21.70;99.90
12408;DHT22;6268;48.188;17.134;2023-08-30T09:49:23;21.90;99.90
12408;DHT22;6268;48.188;17.134;2023-08-30T09:51:54;22.20;99.90
12408;DHT22;6268;48.188;17.134;2023-08-30T09:54:23;22.70;99.90
12408;DHT22;6268;48.188;17.134;2023-08-30T09:56:55;22.70;99.90
12408;DHT22;6268;48.188;17.134;2023-08-30T09:59:25;22.90;99.90
12408;DHT22;6268;48.188;17.134;2023-08-30T10:01:54;23.00;99.90
12408;DHT22;6268;48.188;17.134;2023-08-30T10:04:24;23.10;99.90
12408;DHT22;6268;48.188;17.134;2023-08-30T10:06:56;23.30;99.90
12408;DHT22;6268;48.188;17.134;2023-08-30T10:09:25;23.50;99.90
12408;DHT22;6268;48.188;17.134;2023-08-30T10:11:54;23.80;99.90
12408;DHT22;6268;48.188;17.134;2023-08-30T10:14:23;24.00;99.90
12408;DHT22;6268;48.188;17.134;2023-08-30T10:17:02;24.20;99.90
12408;DHT22;6268;48.188;17.134;2023-08-30T10:19:31;24.50;99.90
12408;DHT22;6268;48.188;17.134;2023-08-30T10:22:04;24.40;99.90
12408;DHT22;6268;48.188;17.134;2023-08-30T10:24:38;24.70;99.90
12408;DHT22;6268;48.188;17.134;2023-08-30T10:27:29;24.70;99.90
12408;DHT22;6268;48.188;17.134;2023-08-30T10:30:01;24.30;99.90
12408;DHT22;6268;48.188;17.134;2023-08-30T10:32:30;24.30;99.90
12408;DHT22;6268;48.188;17.134;2023-08-30T10:35:01;24.20;99.90
12408;DHT22;6268;48.188;17.134;2023-08-30T10:37:32;24.50;99.90
12408;DHT22;6268;48.188;17.134;2023-08-30T10:40:04;24.40;99.90
12408;DHT22;6268;48.188;17.134;2023-08-30T10:42:33;24.60;99.90
12408;DHT22;6268;48.188;17.134;2023-08-30T10:45:04;25.00;99.90
12408;DHT22;6268;48.188;17.134;2023-08-30T10:47:36;25.00;99.90
12408;DHT22;6268;48.188;17.134;2023-08-30T10:50:07;24.80;99.90
12408;DHT22;6268;48.188;17.134;2023-08-30T10:52:37;24.80;99.90
12408;DHT22;6268;48.188;17.134;2023-08-30T10:55:07;24.70;99.90
12408;DHT22;6268;48.188;17.134;2023-08-30T10:57:37;24.30;99.90
12408;DHT22;6268;48.188;17.134;2023-08-30T11:00:07;24.20;99.90
12408;DHT22;6268;48.188;17.134;2023-08-30T11:02:37;24.30;99.90
12408;DHT22;6268;48.188;17.134;2023-08-30T11:05:06;24.30;99.90
12408;DHT22;6268;48.188;17.134;2023-08-30T11:07:37;24.20;99.90
12408;DHT22;6268;48.188;17.134;2023-08-30T11:10:06;24.30;99.90
12408;DHT22;6268;48.188;17.134;2023-08-30T11:12:35;24.20;99.90
12408;DHT22;6268;48.188;17.134;2023-08-30T11:15:06;24.10;99.90
12408;DHT22;6268;48.188;17.134;2023-08-30T11:17:35;24.20;99.90
12408;DHT22;6268;48.188;17.134;2023-08-30T11:20:09;24.30;99.90
12408;DHT22;6268;48.188;17.134;2023-08-30T11:22:40;24.40;99.90
12408;DHT22;6268;48.188;17.134;2023-08-30T11:25:11;24.20;99.90
12408;DHT22;6268;48.188;17.134;2023-08-30T11:27:41;24.20;99.90
12408;DHT22;6268;48.188;17.134;2023-08-30T11:30:11;24.20;99.90
12408;DHT22;6268;48.188;17.134;2023-08-30T11:32:41;24.20;99.90
12408;DHT22;6268;48.188;17.134;2023-08-30T11:35:10;24.00;99.90
12408;DHT22;6268;48.188;17.134;2023-08-30T11:37:41;24.20;99.90
12408;DHT22;6268;48.188;17.134;2023-08-30T11:40:12;24.00;99.90
12408;DHT22;6268;48.188;17.134;2023-08-30T11:42:41;24.00;99.90
12408;DHT22;6268;48.188;17.134;2023-08-30T11:45:13;24.00;99.90
12408;DHT22;6268;48.188;17.134;2023-08-30T11:47:43;23.90;99.90
12408;DHT22;6268;48.188;17.134;2023-08-30T11:50:12;24.00;99.90
12408;DHT22;6268;48.188;17.134;2023-08-30T11:52:43;24.00;99.90
12408;DHT22;6268;48.188;17.134;2023-08-30T11:55:11;24.20;99.90
12408;DHT22;6268;48.188;17.134;2023-08-30T11:57:43;24.20;99.90
12408;DHT22;6268;48.188;17.134;2023-08-30T12:00:14;24.10;99.90
12408;DHT22;6268;48.188;17.134;2023-08-30T12:02:42;23.90;99.90
12408;DHT22;6268;48.188;17.134;2023-08-30T12:05:12;23.70;99.90
12408;DHT22;6268;48.188;17.134;2023-08-30T12:07:42;23.80;99.90
12408;DHT22;6268;48.188;17.134;2023-08-30T12:10:11;23.60;99.90
12408;DHT22;6268;48.188;17.134;2023-08-30T12:12:45;23.60;99.90
12408;DHT22;6268;48.188;17.134;2023-08-30T12:15:14;23.50;99.90
12408;DHT22;6268;48.188;17.134;2023-08-30T12:17:43;23.50;99.90
12408;DHT22;6268;48.188;17.134;2023-08-30T12:20:15;23.30;99.90
12408;DHT22;6268;48.188;17.134;2023-08-30T12:22:46;23.20;99.90
12408;DHT22;6268;48.188;17.134;2023-08-30T12:25:16;22.80;99.90
12408;DHT22;6268;48.188;17.134;2023-08-30T12:27:45;22.80;99.90
12408;DHT22;6268;48.188;17.134;2023-08-30T12:30:14;22.90;99.90
12408;DHT22;6268;48.188;17.134;2023-08-30T12:32:43;22.80;99.90
12408;DHT22;6268;48.188;17.134;2023-08-30T12:35:12;22.80;99.90
12408;DHT22;6268;48.188;17.134;2023-08-30T12:37:42;22.80;99.90
12408;DHT22;6268;48.188;17.134;2023-08-30T12:40:12;22.90;99.90
12408;DHT22;6268;48.188;17.134;2023-08-30T12:42:41;22.70;99.90
12408;DHT22;6268;48.188;17.134;2023-08-30T12:45:09;22.80;99.90
12408;DHT22;6268;48.188;17.134;2023-08-30T12:47:38;22.80;99.90
12408;DHT22;6268;48.188;17.134;2023-08-30T12:50:07;22.90;99.90
12408;DHT22;6268;48.188;17.134;2023-08-30T12:52:36;22.90;99.90
12408;DHT22;6268;48.188;17.134;2023-08-30T12:55:05;23.00;99.90
12408;DHT22;6268;48.188;17.134;2023-08-30T12:57:36;22.90;99.90
12408;DHT22;6268;48.188;17.134;2023-08-30T13:00:05;23.00;99.90
12408;DHT22;6268;48.188;17.134;2023-08-30T13:02:34;23.10;99.90
12408;DHT22;6268;48.188;17.134;2023-08-30T13:05:03;23.00;99.90
12408;DHT22;6268;48.188;17.134;2023-08-30T13:07:31;23.20;99.90
12408;DHT22;6268;48.188;17.134;2023-08-30T13:10:02;23.40;99.90
12408;DHT22;6268;48.188;17.134;2023-08-30T13:12:30;23.50;99.90
12408;DHT22;6268;48.188;17.134;2023-08-30T13:15:00;23.50;99.90
12408;DHT22;6268;48.188;17.134;2023-08-30T13:17:29;23.40;99.90
12408;DHT22;6268;48.188;17.134;2023-08-30T13:19:57;23.10;99.90
12408;DHT22;6268;48.188;17.134;2023-08-30T13:22:26;23.30;99.90
12408;DHT22;6268;48.188;17.134;2023-08-30T13:24:54;23.40;99.90
12408;DHT22;6268;48.188;17.134;2023-08-30T13:27:23;23.20;99.90
12408;DHT22;6268;48.188;17.134;2023-08-30T13:29:51;23.00;99.90
12408;DHT22;6268;48.188;17.134;2023-08-30T13:32:21;22.90;99.90
12408;DHT22;6268;48.188;17.134;2023-08-30T13:34:50;23.00;99.90
12408;DHT22;6268;48.188;17.134;2023-08-30T13:37:18;23.20;99.90
12408;DHT22;6268;48.188;17.134;2023-08-30T13:39:47;23.20;99.90
12408;DHT22;6268;48.188;17.134;2023-08-30T13:42:15;23.10;99.90
12408;DHT22;6268;48.188;17.134;2023-08-30T13:44:44;23.10;99.90
12408;DHT22;6268;48.188;17.134;2023-08-30T13:47:12;23.20;99.90
12408;DHT22;6268;48.188;17.134;2023-08-30T13:49:44;23.40;99.90
12408;DHT22;6268;48.188;17.134;2023-08-30T13:52:12;23.30;99.90
12408;DHT22;6268;48.188;17.134;2023-08-30T13:54:41;23.30;99.90
12408;DHT22;6268;48.188;17.134;2023-08-30T13:57:10;23.50;99.90
12408;DHT22;6268;48.188;17.134;2023-08-30T13:59:38;23.50;99.90
12408;DHT22;6268;48.188;17.134;2023-08-30T14:02:06;23.40;99.90
12408;DHT22;6268;48.188;17.134;2023-08-30T14:04:35;23.50;99.90
12408;DHT22;6268;48.188;17.134;2023-08-30T14:07:06;23.40;99.90
12408;DHT22;6268;48.188;17.134;2023-08-30T14:09:34;23.40;99.90
12408;DHT22;6268;48.188;17.134;2023-08-30T14:12:03;23.60;99.90
12408;DHT22;6268;48.188;17.134;2023-08-30T14:14:32;23.70;99.90
12408;DHT22;6268;48.188;17.134;2023-08-30T14:17:01;23.60;99.90
12408;DHT22;6268;48.188;17.134;2023-08-30T14:19:29;23.50;99.90
12408;DHT22;6268;48.188;17.134;2023-08-30T14:21:58;23.60;99.90
12408;DHT22;6268;48.188;17.134;2023-08-30T14:24:29;23.50;99.90
12408;DHT22;6268;48.188;17.134;2023-08-30T14:27:04;23.50;99.90
12408;DHT22;6268;48.188;17.134;2023-08-30T14:29:34;23.60;99.90
12408;DHT22;6268;48.188;17.134;2023-08-30T14:32:03;23.80;99.90
12408;DHT22;6268;48.188;17.134;2023-08-30T14:34:31;23.80;99.90
12408;DHT22;6268;48.188;17.134;2023-08-30T14:37:00;23.50;99.90
12408;DHT22;6268;48.188;17.134;2023-08-30T14:39:30;23.20;99.90
12408;DHT22;6268;48.188;17.134;2023-08-30T14:41:59;23.40;99.90
12408;DHT22;6268;48.188;17.134;2023-08-30T14:44:27;23.30;99.90
12408;DHT22;6268;48.188;17.134;2023-08-30T14:46:55;23.20;99.90
12408;DHT22;6268;48.188;17.134;2023-08-30T14:49:24;23.10;99.90
12408;DHT22;6268;48.188;17.134;2023-08-30T14:51:53;23.30;99.90
12408;DHT22;6268;48.188;17.134;2023-08-30T14:54:21;23.30;99.90
12408;DHT22;6268;48.188;17.134;2023-08-30T14:56:51;23.40;99.90
12408;DHT22;6268;48.188;17.134;2023-08-30T14:59:19;23.30;99.90
12408;DHT22;6268;48.188;17.134;2023-08-30T15:01:48;23.10;99.90
12408;DHT22;6268;48.188;17.134;2023-08-30T15:04:17;22.90;99.90
12408;DHT22;6268;48.188;17.134;2023-08-30T15:06:45;22.90;99.90
12408;DHT22;6268;48.188;17.134;2023-08-30T15:09:14;22.90;99.90
12408;DHT22;6268;48.188;17.134;2023-08-30T15:11:43;22.60;99.90
12408;DHT22;6268;48.188;17.134;2023-08-30T15:14:13;22.60;99.90
12408;DHT22;6268;48.188;17.134;2023-08-30T15:16:41;22.60;99.90
12408;DHT22;6268;48.188;17.134;2023-08-30T15:19:10;22.40;99.90
12408;DHT22;6268;48.188;17.134;2023-08-30T15:21:38;22.30;99.90
12408;DHT22;6268;48.188;17.134;2023-08-30T15:24:07;22.30;99.90
12408;DHT22;6268;48.188;17.134;2023-08-30T15:26:35;22.40;99.90
12408;DHT22;6268;48.188;17.134;2023-08-30T15:29:04;22.50;99.90
12408;DHT22;6268;48.188;17.134;2023-08-30T15:31:35;22.50;99.90
12408;DHT22;6268;48.188;17.134;2023-08-30T15:34:03;22.40;99.90
12408;DHT22;6268;48.188;17.134;2023-08-30T15:36:32;22.40;99.90
12408;DHT22;6268;48.188;17.134;2023-08-30T15:39:00;22.20;99.90
12408;DHT22;6268;48.188;17.134;2023-08-30T15:41:29;22.10;99.90
12408;DHT22;6268;48.188;17.134;2023-08-30T15:43:57;22.20;99.90